Jilin, China
Current Conditions -  °F | °C
As of 1:00 AM on Friday 24 Oct 2014 (Local Time) from ZYCC Reporting Station
Haze Haze  
Wind Chill: 55°   Ceiling: Unl
Heat Index: 55°   Visibility: 1.8mi
Dew Point: 41°   Wind: 9mph
Humidity: 58%   Direction: 180°S
Pressure: 29.88"   Gusts: NA
Location:  43.85°N, 126.55°E
Report Text: ZYCC 231700Z 18004MPS 3000 BR SCT023 13/05 Q1012 NOSIG
Loading
Personal Weather Stations






























Interactive Weather Map
Tropical Storm Tracking
New forecast layout! Learn more

10-Day Weather Forecast

Advertisements
Track Severe Weather on mobile